sensor_id;sensor_type;location;lat;lon;timestamp;P1;durP1;ratioP1;P2;durP2;ratioP2
57281;SDS011;43129;52.628;10.098;2023-09-19T00:02:18;5.78;;;4.35;;
57281;SDS011;43129;52.628;10.098;2023-09-19T00:04:46;3.22;;;2.45;;
57281;SDS011;43129;52.628;10.098;2023-09-19T00:07:13;5.25;;;2.42;;
57281;SDS011;43129;52.628;10.098;2023-09-19T00:09:42;5.18;;;3.42;;
57281;SDS011;43129;52.628;10.098;2023-09-19T00:12:09;4.63;;;2.70;;
57281;SDS011;43129;52.628;10.098;2023-09-19T00:14:40;6.60;;;3.15;;
57281;SDS011;43129;52.628;10.098;2023-09-19T00:17:09;4.70;;;2.70;;
57281;SDS011;43129;52.628;10.098;2023-09-19T00:19:36;5.22;;;2.90;;
57281;SDS011;43129;52.628;10.098;2023-09-19T00:22:07;6.32;;;4.15;;
57281;SDS011;43129;52.628;10.098;2023-09-19T00:24:33;4.85;;;2.70;;
57281;SDS011;43129;52.628;10.098;2023-09-19T00:26:59;3.80;;;2.50;;
57281;SDS011;43129;52.628;10.098;2023-09-19T00:29:27;6.85;;;4.68;;
57281;SDS011;43129;52.628;10.098;2023-09-19T00:31:58;5.85;;;4.03;;
57281;SDS011;43129;52.628;10.098;2023-09-19T00:34:28;4.32;;;2.72;;
57281;SDS011;43129;52.628;10.098;2023-09-19T00:36:59;6.03;;;3.70;;
57281;SDS011;43129;52.628;10.098;2023-09-19T00:39:26;4.53;;;2.60;;
57281;SDS011;43129;52.628;10.098;2023-09-19T00:41:56;5.97;;;3.50;;
57281;SDS011;43129;52.628;10.098;2023-09-19T00:44:22;6.35;;;3.47;;
57281;SDS011;43129;52.628;10.098;2023-09-19T00:46:48;7.13;;;3.92;;
57281;SDS011;43129;52.628;10.098;2023-09-19T00:49:15;4.20;;;2.53;;
57281;SDS011;43129;52.628;10.098;2023-09-19T00:51:41;3.08;;;2.78;;
57281;SDS011;43129;52.628;10.098;2023-09-19T00:54:11;5.03;;;2.70;;
57281;SDS011;43129;52.628;10.098;2023-09-19T00:56:42;5.18;;;3.28;;
57281;SDS011;43129;52.628;10.098;2023-09-19T00:59:08;4.88;;;3.28;;
57281;SDS011;43129;52.628;10.098;2023-09-19T01:01:36;5.55;;;3.25;;
57281;SDS011;43129;52.628;10.098;2023-09-19T01:04:05;9.25;;;4.68;;
57281;SDS011;43129;52.628;10.098;2023-09-19T01:06:31;6.78;;;4.38;;
57281;SDS011;43129;52.628;10.098;2023-09-19T01:08:57;10.27;;;5.68;;
57281;SDS011;43129;52.628;10.098;2023-09-19T01:11:32;9.48;;;6.07;;
57281;SDS011;43129;52.628;10.098;2023-09-19T01:14:20;12.88;;;9.02;;
57281;SDS011;43129;52.628;10.098;2023-09-19T01:20:03;4.43;;;3.35;;
57281;SDS011;43129;52.628;10.098;2023-09-19T01:31:11;6.28;;;3.70;;
57281;SDS011;43129;52.628;10.098;2023-09-19T01:36:22;6.18;;;3.65;;
57281;SDS011;43129;52.628;10.098;2023-09-19T01:38:54;5.73;;;4.13;;
57281;SDS011;43129;52.628;10.098;2023-09-19T01:41:23;7.20;;;3.80;;
57281;SDS011;43129;52.628;10.098;2023-09-19T01:44:17;6.25;;;4.10;;
57281;SDS011;43129;52.628;10.098;2023-09-19T01:46:52;10.00;;;4.20;;
57281;SDS011;43129;52.628;10.098;2023-09-19T01:49:35;7.97;;;4.53;;
57281;SDS011;43129;52.628;10.098;2023-09-19T01:52:11;8.60;;;4.47;;
57281;SDS011;43129;52.628;10.098;2023-09-19T01:54:45;8.35;;;4.60;;
57281;SDS011;43129;52.628;10.098;2023-09-19T02:00:03;6.97;;;4.53;;
57281;SDS011;43129;52.628;10.098;2023-09-19T02:02:40;11.52;;;5.07;;
57281;SDS011;43129;52.628;10.098;2023-09-19T02:05:13;19.75;;;6.40;;
57281;SDS011;43129;52.628;10.098;2023-09-19T02:07:48;8.90;;;4.75;;
57281;SDS011;43129;52.628;10.098;2023-09-19T02:10:14;7.93;;;4.60;;
57281;SDS011;43129;52.628;10.098;2023-09-19T02:12:39;8.75;;;4.70;;
57281;SDS011;43129;52.628;10.098;2023-09-19T02:15:05;13.35;;;4.97;;
57281;SDS011;43129;52.628;10.098;2023-09-19T02:17:36;10.23;;;4.80;;
57281;SDS011;43129;52.628;10.098;2023-09-19T02:20:02;7.35;;;4.53;;
57281;SDS011;43129;52.628;10.098;2023-09-19T02:22:35;10.07;;;4.95;;
57281;SDS011;43129;52.628;10.098;2023-09-19T02:25:02;8.73;;;4.60;;
57281;SDS011;43129;52.628;10.098;2023-09-19T02:27:30;8.35;;;4.80;;
57281;SDS011;43129;52.628;10.098;2023-09-19T02:29:58;9.50;;;4.70;;
57281;SDS011;43129;52.628;10.098;2023-09-19T02:32:24;12.43;;;4.57;;
57281;SDS011;43129;52.628;10.098;2023-09-19T02:34:49;5.85;;;4.72;;
57281;SDS011;43129;52.628;10.098;2023-09-19T02:37:17;12.95;;;5.57;;
57281;SDS011;43129;52.628;10.098;2023-09-19T02:39:44;13.52;;;5.10;;
57281;SDS011;43129;52.628;10.098;2023-09-19T02:42:12;11.25;;;4.72;;
57281;SDS011;43129;52.628;10.098;2023-09-19T02:44:38;14.23;;;5.28;;
57281;SDS011;43129;52.628;10.098;2023-09-19T02:47:05;10.30;;;4.63;;
57281;SDS011;43129;52.628;10.098;2023-09-19T02:49:30;11.15;;;5.65;;
57281;SDS011;43129;52.628;10.098;2023-09-19T02:51:56;11.60;;;6.45;;
57281;SDS011;43129;52.628;10.098;2023-09-19T02:54:23;15.02;;;6.15;;
57281;SDS011;43129;52.628;10.098;2023-09-19T02:56:49;16.30;;;6.40;;
57281;SDS011;43129;52.628;10.098;2023-09-19T02:59:20;14.60;;;7.03;;
57281;SDS011;43129;52.628;10.098;2023-09-19T03:01:46;12.25;;;5.30;;
57281;SDS011;43129;52.628;10.098;2023-09-19T03:04:15;12.85;;;5.88;;
57281;SDS011;43129;52.628;10.098;2023-09-19T03:06:45;10.85;;;5.88;;
57281;SDS011;43129;52.628;10.098;2023-09-19T03:09:11;12.80;;;6.07;;
57281;SDS011;43129;52.628;10.098;2023-09-19T03:11:36;12.45;;;6.35;;
57281;SDS011;43129;52.628;10.098;2023-09-19T03:14:05;10.45;;;4.75;;
57281;SDS011;43129;52.628;10.098;2023-09-19T03:16:35;9.73;;;5.20;;
57281;SDS011;43129;52.628;10.098;2023-09-19T03:19:02;17.50;;;5.35;;
57281;SDS011;43129;52.628;10.098;2023-09-19T03:21:28;12.43;;;4.50;;
57281;SDS011;43129;52.628;10.098;2023-09-19T03:23:55;12.93;;;5.28;;
57281;SDS011;43129;52.628;10.098;2023-09-19T03:26:21;12.02;;;4.45;;
57281;SDS011;43129;52.628;10.098;2023-09-19T03:28:46;10.80;;;4.40;;
57281;SDS011;43129;52.628;10.098;2023-09-19T03:31:12;8.75;;;4.30;;
57281;SDS011;43129;52.628;10.098;2023-09-19T03:33:38;7.25;;;4.38;;
57281;SDS011;43129;52.628;10.098;2023-09-19T03:36:09;13.88;;;4.10;;
57281;SDS011;43129;52.628;10.098;2023-09-19T03:38:38;7.63;;;4.25;;
57281;SDS011;43129;52.628;10.098;2023-09-19T03:41:04;13.57;;;3.80;;
57281;SDS011;43129;52.628;10.098;2023-09-19T03:43:29;12.75;;;4.28;;
57281;SDS011;43129;52.628;10.098;2023-09-19T03:46:00;9.85;;;3.83;;
57281;SDS011;43129;52.628;10.098;2023-09-19T03:48:35;8.63;;;3.55;;
57281;SDS011;43129;52.628;10.098;2023-09-19T03:51:01;11.35;;;4.13;;
57281;SDS011;43129;52.628;10.098;2023-09-19T03:53:29;11.82;;;4.13;;
57281;SDS011;43129;52.628;10.098;2023-09-19T03:55:55;13.38;;;4.22;;
57281;SDS011;43129;52.628;10.098;2023-09-19T03:58:20;10.07;;;3.83;;
57281;SDS011;43129;52.628;10.098;2023-09-19T04:00:46;11.80;;;3.85;;
57281;SDS011;43129;52.628;10.098;2023-09-19T04:03:15;9.15;;;3.08;;
57281;SDS011;43129;52.628;10.098;2023-09-19T04:05:45;7.60;;;3.42;;
57281;SDS011;43129;52.628;10.098;2023-09-19T04:08:12;10.43;;;3.38;;
57281;SDS011;43129;52.628;10.098;2023-09-19T04:10:41;12.50;;;3.97;;
57281;SDS011;43129;52.628;10.098;2023-09-19T04:13:11;11.52;;;3.60;;
57281;SDS011;43129;52.628;10.098;2023-09-19T04:15:38;9.20;;;3.25;;
57281;SDS011;43129;52.628;10.098;2023-09-19T04:18:05;9.80;;;3.58;;
57281;SDS011;43129;52.628;10.098;2023-09-19T04:20:33;11.55;;;3.30;;
57281;SDS011;43129;52.628;10.098;2023-09-19T04:23:01;9.70;;;3.42;;
57281;SDS011;43129;52.628;10.098;2023-09-19T04:25:27;7.30;;;2.88;;
57281;SDS011;43129;52.628;10.098;2023-09-19T04:27:55;12.23;;;3.40;;
57281;SDS011;43129;52.628;10.098;2023-09-19T04:30:23;12.32;;;3.70;;
57281;SDS011;43129;52.628;10.098;2023-09-19T04:32:52;10.38;;;3.20;;
57281;SDS011;43129;52.628;10.098;2023-09-19T04:35:18;8.27;;;3.38;;
57281;SDS011;43129;52.628;10.098;2023-09-19T04:37:44;8.38;;;2.80;;
57281;SDS011;43129;52.628;10.098;2023-09-19T04:40:09;13.52;;;3.40;;
57281;SDS011;43129;52.628;10.098;2023-09-19T04:42:38;10.38;;;3.72;;
57281;SDS011;43129;52.628;10.098;2023-09-19T04:45:05;10.85;;;3.35;;
57281;SDS011;43129;52.628;10.098;2023-09-19T04:47:31;7.93;;;2.85;;
57281;SDS011;43129;52.628;10.098;2023-09-19T04:49:56;9.00;;;3.33;;
57281;SDS011;43129;52.628;10.098;2023-09-19T04:52:24;14.18;;;3.63;;
57281;SDS011;43129;52.628;10.098;2023-09-19T04:54:49;8.02;;;3.10;;
57281;SDS011;43129;52.628;10.098;2023-09-19T04:57:15;11.30;;;3.75;;
57281;SDS011;43129;52.628;10.098;2023-09-19T04:59:41;14.63;;;3.67;;
57281;SDS011;43129;52.628;10.098;2023-09-19T05:02:11;10.43;;;3.80;;
57281;SDS011;43129;52.628;10.098;2023-09-19T05:04:37;8.52;;;3.45;;
57281;SDS011;43129;52.628;10.098;2023-09-19T05:07:03;9.65;;;3.10;;
57281;SDS011;43129;52.628;10.098;2023-09-19T05:09:29;11.38;;;4.32;;
57281;SDS011;43129;52.628;10.098;2023-09-19T05:11:59;13.77;;;3.38;;
57281;SDS011;43129;52.628;10.098;2023-09-19T05:14:25;10.32;;;3.38;;
57281;SDS011;43129;52.628;10.098;2023-09-19T05:16:50;10.25;;;3.50;;
57281;SDS011;43129;52.628;10.098;2023-09-19T05:19:19;12.35;;;3.47;;
57281;SDS011;43129;52.628;10.098;2023-09-19T05:21:47;10.90;;;3.83;;
57281;SDS011;43129;52.628;10.098;2023-09-19T05:24:14;12.93;;;3.50;;
57281;SDS011;43129;52.628;10.098;2023-09-19T05:26:39;9.52;;;3.15;;
57281;SDS011;43129;52.628;10.098;2023-09-19T05:29:07;9.60;;;4.05;;
57281;SDS011;43129;52.628;10.098;2023-09-19T05:31:34;8.75;;;3.22;;
57281;SDS011;43129;52.628;10.098;2023-09-19T05:34:08;9.07;;;3.42;;
57281;SDS011;43129;52.628;10.098;2023-09-19T05:36:36;11.57;;;3.53;;
57281;SDS011;43129;52.628;10.098;2023-09-19T05:39:02;12.07;;;4.22;;
57281;SDS011;43129;52.628;10.098;2023-09-19T05:41:33;16.75;;;4.05;;
57281;SDS011;43129;52.628;10.098;2023-09-19T05:43:59;10.00;;;3.72;;
57281;SDS011;43129;52.628;10.098;2023-09-19T05:46:28;12.20;;;3.72;;
57281;SDS011;43129;52.628;10.098;2023-09-19T05:48:55;10.88;;;3.88;;
57281;SDS011;43129;52.628;10.098;2023-09-19T05:51:26;10.25;;;3.70;;
57281;SDS011;43129;52.628;10.098;2023-09-19T05:53:55;10.18;;;3.90;;
57281;SDS011;43129;52.628;10.098;2023-09-19T05:56:21;11.00;;;3.60;;
57281;SDS011;43129;52.628;10.098;2023-09-19T05:58:47;11.00;;;3.40;;
57281;SDS011;43129;52.628;10.098;2023-09-19T06:01:13;11.95;;;3.78;;
57281;SDS011;43129;52.628;10.098;2023-09-19T06:03:38;10.35;;;3.42;;
57281;SDS011;43129;52.628;10.098;2023-09-19T06:06:04;12.63;;;3.83;;
57281;SDS011;43129;52.628;10.098;2023-09-19T06:08:32;10.90;;;4.13;;
57281;SDS011;43129;52.628;10.098;2023-09-19T06:11:02;12.10;;;4.60;;
57281;SDS011;43129;52.628;10.098;2023-09-19T06:13:32;10.93;;;3.80;;
57281;SDS011;43129;52.628;10.098;2023-09-19T06:15:58;14.55;;;4.75;;
57281;SDS011;43129;52.628;10.098;2023-09-19T06:18:28;13.63;;;4.78;;
57281;SDS011;43129;52.628;10.098;2023-09-19T06:20:54;14.07;;;5.15;;
57281;SDS011;43129;52.628;10.098;2023-09-19T06:23:20;15.07;;;4.93;;
57281;SDS011;43129;52.628;10.098;2023-09-19T06:25:46;12.68;;;4.70;;
57281;SDS011;43129;52.628;10.098;2023-09-19T06:31:07;12.75;;;5.25;;
57281;SDS011;43129;52.628;10.098;2023-09-19T06:33:38;11.65;;;5.25;;
57281;SDS011;43129;52.628;10.098;2023-09-19T06:36:07;13.85;;;5.38;;
57281;SDS011;43129;52.628;10.098;2023-09-19T06:38:33;13.32;;;5.25;;
57281;SDS011;43129;52.628;10.098;2023-09-19T06:41:01;14.63;;;5.50;;
57281;SDS011;43129;52.628;10.098;2023-09-19T06:43:29;13.60;;;4.40;;
57281;SDS011;43129;52.628;10.098;2023-09-19T06:45:55;10.40;;;4.97;;
57281;SDS011;43129;52.628;10.098;2023-09-19T06:48:24;9.30;;;4.55;;
57281;SDS011;43129;52.628;10.098;2023-09-19T06:50:58;13.20;;;5.40;;
57281;SDS011;43129;52.628;10.098;2023-09-19T06:53:26;14.55;;;5.03;;
57281;SDS011;43129;52.628;10.098;2023-09-19T06:55:54;14.77;;;5.22;;
57281;SDS011;43129;52.628;10.098;2023-09-19T06:58:19;14.23;;;4.82;;
57281;SDS011;43129;52.628;10.098;2023-09-19T07:00:45;12.35;;;5.38;;
57281;SDS011;43129;52.628;10.098;2023-09-19T07:03:13;13.38;;;4.80;;
57281;SDS011;43129;52.628;10.098;2023-09-19T07:05:40;14.65;;;5.00;;
57281;SDS011;43129;52.628;10.098;2023-09-19T07:08:09;13.48;;;4.68;;
57281;SDS011;43129;52.628;10.098;2023-09-19T07:10:40;12.55;;;4.43;;
57281;SDS011;43129;52.628;10.098;2023-09-19T07:13:13;11.27;;;4.45;;
57281;SDS011;43129;52.628;10.098;2023-09-19T07:15:44;10.75;;;4.10;;
57281;SDS011;43129;52.628;10.098;2023-09-19T07:18:15;11.82;;;3.90;;
57281;SDS011;43129;52.628;10.098;2023-09-19T07:20:44;12.80;;;3.75;;
57281;SDS011;43129;52.628;10.098;2023-09-19T07:23:19;15.88;;;4.20;;
57281;SDS011;43129;52.628;10.098;2023-09-19T07:25:47;15.37;;;3.90;;
57281;SDS011;43129;52.628;10.098;2023-09-19T07:28:13;13.15;;;3.60;;
57281;SDS011;43129;52.628;10.098;2023-09-19T07:30:39;12.48;;;4.00;;
57281;SDS011;43129;52.628;10.098;2023-09-19T07:33:09;13.63;;;3.75;;
57281;SDS011;43129;52.628;10.098;2023-09-19T07:35:37;9.23;;;3.25;;
57281;SDS011;43129;52.628;10.098;2023-09-19T07:38:06;11.02;;;3.03;;
57281;SDS011;43129;52.628;10.098;2023-09-19T07:40:33;12.05;;;3.58;;
57281;SDS011;43129;52.628;10.098;2023-09-19T07:42:59;17.02;;;3.45;;
57281;SDS011;43129;52.628;10.098;2023-09-19T07:45:27;11.88;;;3.65;;
57281;SDS011;43129;52.628;10.098;2023-09-19T07:47:55;11.98;;;3.33;;
57281;SDS011;43129;52.628;10.098;2023-09-19T07:50:20;11.77;;;2.92;;
57281;SDS011;43129;52.628;10.098;2023-09-19T07:52:49;10.65;;;3.00;;
57281;SDS011;43129;52.628;10.098;2023-09-19T07:55:18;10.02;;;3.13;;
57281;SDS011;43129;52.628;10.098;2023-09-19T07:57:48;7.13;;;2.90;;
57281;SDS011;43129;52.628;10.098;2023-09-19T08:00:16;14.80;;;3.33;;
57281;SDS011;43129;52.628;10.098;2023-09-19T08:02:42;9.55;;;3.17;;
57281;SDS011;43129;52.628;10.098;2023-09-19T08:05:09;11.52;;;2.65;;
57281;SDS011;43129;52.628;10.098;2023-09-19T08:07:38;9.40;;;2.75;;
57281;SDS011;43129;52.628;10.098;2023-09-19T08:10:05;11.18;;;3.13;;
57281;SDS011;43129;52.628;10.098;2023-09-19T08:12:38;11.55;;;3.35;;
57281;SDS011;43129;52.628;10.098;2023-09-19T08:15:20;9.85;;;3.05;;
57281;SDS011;43129;52.628;10.098;2023-09-19T08:17:46;10.50;;;3.20;;
57281;SDS011;43129;52.628;10.098;2023-09-19T08:20:12;10.27;;;2.88;;
57281;SDS011;43129;52.628;10.098;2023-09-19T08:22:48;12.88;;;3.47;;
57281;SDS011;43129;52.628;10.098;2023-09-19T08:25:17;6.47;;;2.35;;
57281;SDS011;43129;52.628;10.098;2023-09-19T08:27:49;11.13;;;3.15;;
57281;SDS011;43129;52.628;10.098;2023-09-19T08:30:16;10.80;;;2.83;;
57281;SDS011;43129;52.628;10.098;2023-09-19T08:32:49;9.73;;;2.88;;
57281;SDS011;43129;52.628;10.098;2023-09-19T08:35:17;15.80;;;3.33;;
57281;SDS011;43129;52.628;10.098;2023-09-19T08:37:45;7.43;;;2.88;;
57281;SDS011;43129;52.628;10.098;2023-09-19T08:40:11;9.80;;;2.85;;
57281;SDS011;43129;52.628;10.098;2023-09-19T08:45:20;11.57;;;3.55;;
57281;SDS011;43129;52.628;10.098;2023-09-19T08:50:51;9.07;;;2.72;;
57281;SDS011;43129;52.628;10.098;2023-09-19T08:55:59;11.07;;;2.97;;
57281;SDS011;43129;52.628;10.098;2023-09-19T08:58:27;13.40;;;3.08;;
57281;SDS011;43129;52.628;10.098;2023-09-19T09:01:02;9.18;;;2.50;;
57281;SDS011;43129;52.628;10.098;2023-09-19T09:03:32;7.40;;;2.50;;
57281;SDS011;43129;52.628;10.098;2023-09-19T09:06:02;15.25;;;3.03;;
57281;SDS011;43129;52.628;10.098;2023-09-19T09:08:30;10.18;;;2.83;;
57281;SDS011;43129;52.628;10.098;2023-09-19T09:10:56;9.50;;;2.60;;
57281;SDS011;43129;52.628;10.098;2023-09-19T09:13:26;12.63;;;3.47;;
57281;SDS011;43129;52.628;10.098;2023-09-19T09:15:55;8.15;;;2.60;;
57281;SDS011;43129;52.628;10.098;2023-09-19T09:18:20;9.20;;;2.55;;
57281;SDS011;43129;52.628;10.098;2023-09-19T09:20:49;9.30;;;2.70;;
57281;SDS011;43129;52.628;10.098;2023-09-19T09:23:14;8.68;;;2.47;;
57281;SDS011;43129;52.628;10.098;2023-09-19T09:25:52;13.25;;;3.85;;
57281;SDS011;43129;52.628;10.098;2023-09-19T09:28:23;9.73;;;2.47;;
57281;SDS011;43129;52.628;10.098;2023-09-19T09:30:53;7.65;;;2.60;;
57281;SDS011;43129;52.628;10.098;2023-09-19T09:33:20;9.60;;;2.50;;
57281;SDS011;43129;52.628;10.098;2023-09-19T09:35:53;8.85;;;2.67;;
57281;SDS011;43129;52.628;10.098;2023-09-19T09:38:29;7.95;;;2.50;;
57281;SDS011;43129;52.628;10.098;2023-09-19T09:41:10;8.18;;;2.67;;
57281;SDS011;43129;52.628;10.098;2023-09-19T09:43:40;7.15;;;2.45;;
57281;SDS011;43129;52.628;10.098;2023-09-19T09:46:15;10.27;;;2.92;;
57281;SDS011;43129;52.628;10.098;2023-09-19T09:51:39;7.30;;;3.05;;
57281;SDS011;43129;52.628;10.098;2023-09-19T09:54:14;7.10;;;2.30;;
57281;SDS011;43129;52.628;10.098;2023-09-19T10:02:18;8.43;;;2.88;;
57281;SDS011;43129;52.628;10.098;2023-09-19T10:04:54;7.70;;;2.60;;
57281;SDS011;43129;52.628;10.098;2023-09-19T10:07:27;8.40;;;2.40;;
57281;SDS011;43129;52.628;10.098;2023-09-19T10:10:02;8.10;;;2.90;;
57281;SDS011;43129;52.628;10.098;2023-09-19T10:12:42;8.32;;;2.90;;
57281;SDS011;43129;52.628;10.098;2023-09-19T10:15:10;8.45;;;2.83;;
57281;SDS011;43129;52.628;10.098;2023-09-19T10:17:42;6.85;;;2.53;;
57281;SDS011;43129;52.628;10.098;2023-09-19T10:20:11;9.48;;;2.72;;
57281;SDS011;43129;52.628;10.098;2023-09-19T10:23:00;6.32;;;2.40;;
57281;SDS011;43129;52.628;10.098;2023-09-19T10:25:28;8.57;;;3.00;;
57281;SDS011;43129;52.628;10.098;2023-09-19T10:27:57;7.55;;;2.50;;
57281;SDS011;43129;52.628;10.098;2023-09-19T10:33:01;8.02;;;2.83;;
57281;SDS011;43129;52.628;10.098;2023-09-19T10:35:33;11.05;;;2.55;;
57281;SDS011;43129;52.628;10.098;2023-09-19T10:38:04;7.40;;;2.83;;
57281;SDS011;43129;52.628;10.098;2023-09-19T10:40:33;8.40;;;2.85;;
57281;SDS011;43129;52.628;10.098;2023-09-19T10:43:04;8.35;;;3.13;;
57281;SDS011;43129;52.628;10.098;2023-09-19T10:45:36;11.45;;;3.05;;
57281;SDS011;43129;52.628;10.098;2023-09-19T10:48:04;9.20;;;2.90;;
57281;SDS011;43129;52.628;10.098;2023-09-19T10:53:17;12.20;;;2.92;;
57281;SDS011;43129;52.628;10.098;2023-09-19T10:55:56;6.75;;;2.72;;
57281;SDS011;43129;52.628;10.098;2023-09-19T10:58:28;9.40;;;2.78;;
57281;SDS011;43129;52.628;10.098;2023-09-19T11:00:59;8.65;;;2.60;;
57281;SDS011;43129;52.628;10.098;2023-09-19T11:03:37;6.95;;;2.30;;
57281;SDS011;43129;52.628;10.098;2023-09-19T11:06:15;7.97;;;2.63;;
57281;SDS011;43129;52.628;10.098;2023-09-19T11:09:01;8.70;;;2.78;;
57281;SDS011;43129;52.628;10.098;2023-09-19T11:11:47;7.90;;;2.67;;
57281;SDS011;43129;52.628;10.098;2023-09-19T11:30:54;9.38;;;3.65;;
57281;SDS011;43129;52.628;10.098;2023-09-19T11:33:24;7.00;;;3.55;;
57281;SDS011;43129;52.628;10.098;2023-09-19T11:43:48;11.30;;;4.53;;
57281;SDS011;43129;52.628;10.098;2023-09-19T11:46:20;6.70;;;2.75;;
57281;SDS011;43129;52.628;10.098;2023-09-19T11:48:49;7.20;;;2.80;;
57281;SDS011;43129;52.628;10.098;2023-09-19T11:51:19;7.53;;;2.85;;
57281;SDS011;43129;52.628;10.098;2023-09-19T11:53:47;9.60;;;3.30;;
57281;SDS011;43129;52.628;10.098;2023-09-19T11:56:16;8.93;;;3.20;;
57281;SDS011;43129;52.628;10.098;2023-09-19T11:58:46;8.38;;;2.92;;
57281;SDS011;43129;52.628;10.098;2023-09-19T12:03:55;10.30;;;2.67;;
57281;SDS011;43129;52.628;10.098;2023-09-19T12:06:28;9.95;;;3.33;;
57281;SDS011;43129;52.628;10.098;2023-09-19T12:08:57;7.15;;;2.63;;
57281;SDS011;43129;52.628;10.098;2023-09-19T12:11:30;11.93;;;3.03;;
57281;SDS011;43129;52.628;10.098;2023-09-19T12:14:02;9.02;;;3.00;;
57281;SDS011;43129;52.628;10.098;2023-09-19T12:16:28;12.50;;;7.78;;
57281;SDS011;43129;52.628;10.098;2023-09-19T12:19:17;9.60;;;3.60;;
57281;SDS011;43129;52.628;10.098;2023-09-19T12:21:50;9.32;;;2.78;;
57281;SDS011;43129;52.628;10.098;2023-09-19T12:24:24;6.68;;;2.70;;
57281;SDS011;43129;52.628;10.098;2023-09-19T12:26:54;9.70;;;3.42;;
57281;SDS011;43129;52.628;10.098;2023-09-19T12:29:26;9.98;;;2.97;;
57281;SDS011;43129;52.628;10.098;2023-09-19T12:31:53;8.05;;;3.20;;
57281;SDS011;43129;52.628;10.098;2023-09-19T12:34:31;7.78;;;2.60;;
57281;SDS011;43129;52.628;10.098;2023-09-19T12:37:07;7.28;;;2.38;;
57281;SDS011;43129;52.628;10.098;2023-09-19T12:39:40;8.00;;;2.40;;
57281;SDS011;43129;52.628;10.098;2023-09-19T12:42:10;9.70;;;3.25;;
57281;SDS011;43129;52.628;10.098;2023-09-19T12:44:45;8.13;;;3.22;;
57281;SDS011;43129;52.628;10.098;2023-09-19T12:47:20;8.52;;;2.72;;
57281;SDS011;43129;52.628;10.098;2023-09-19T12:52:46;7.97;;;2.80;;
57281;SDS011;43129;52.628;10.098;2023-09-19T13:00:30;10.02;;;2.83;;
57281;SDS011;43129;52.628;10.098;2023-09-19T13:05:50;9.95;;;3.10;;
57281;SDS011;43129;52.628;10.098;2023-09-19T13:08:37;8.77;;;2.80;;
57281;SDS011;43129;52.628;10.098;2023-09-19T13:11:04;8.18;;;3.10;;
57281;SDS011;43129;52.628;10.098;2023-09-19T13:13:40;9.93;;;3.00;;
57281;SDS011;43129;52.628;10.098;2023-09-19T13:16:13;7.28;;;2.92;;
57281;SDS011;43129;52.628;10.098;2023-09-19T13:18:50;6.15;;;2.40;;
57281;SDS011;43129;52.628;10.098;2023-09-19T13:21:33;6.90;;;2.83;;
57281;SDS011;43129;52.628;10.098;2023-09-19T13:24:25;18.52;;;3.30;;
57281;SDS011;43129;52.628;10.098;2023-09-19T13:26:55;11.98;;;3.15;;
57281;SDS011;43129;52.628;10.098;2023-09-19T13:29:22;15.15;;;3.22;;
57281;SDS011;43129;52.628;10.098;2023-09-19T13:31:51;9.80;;;2.90;;
57281;SDS011;43129;52.628;10.098;2023-09-19T13:34:20;10.02;;;3.40;;
57281;SDS011;43129;52.628;10.098;2023-09-19T13:36:46;8.60;;;2.70;;
57281;SDS011;43129;52.628;10.098;2023-09-19T13:39:20;10.18;;;3.17;;
57281;SDS011;43129;52.628;10.098;2023-09-19T13:41:49;8.68;;;2.83;;
57281;SDS011;43129;52.628;10.098;2023-09-19T13:44:15;9.38;;;2.88;;
57281;SDS011;43129;52.628;10.098;2023-09-19T13:46:45;12.40;;;3.05;;
57281;SDS011;43129;52.628;10.098;2023-09-19T13:49:13;6.88;;;2.83;;
57281;SDS011;43129;52.628;10.098;2023-09-19T13:51:39;9.75;;;3.38;;
57281;SDS011;43129;52.628;10.098;2023-09-19T13:54:11;8.38;;;3.17;;
57281;SDS011;43129;52.628;10.098;2023-09-19T13:56:39;8.15;;;2.85;;
57281;SDS011;43129;52.628;10.098;2023-09-19T13:59:05;7.75;;;2.83;;
57281;SDS011;43129;52.628;10.098;2023-09-19T14:01:33;7.03;;;2.80;;
57281;SDS011;43129;52.628;10.098;2023-09-19T14:04:01;9.70;;;3.20;;
57281;SDS011;43129;52.628;10.098;2023-09-19T14:06:27;9.93;;;3.17;;
57281;SDS011;43129;52.628;10.098;2023-09-19T14:08:55;7.78;;;2.55;;
57281;SDS011;43129;52.628;10.098;2023-09-19T14:11:21;6.47;;;2.60;;
57281;SDS011;43129;52.628;10.098;2023-09-19T14:13:46;8.95;;;2.97;;
57281;SDS011;43129;52.628;10.098;2023-09-19T14:16:14;10.13;;;3.40;;
57281;SDS011;43129;52.628;10.098;2023-09-19T14:18:40;8.20;;;3.13;;
57281;SDS011;43129;52.628;10.098;2023-09-19T14:21:07;8.63;;;2.90;;
57281;SDS011;43129;52.628;10.098;2023-09-19T14:23:36;11.88;;;2.90;;
57281;SDS011;43129;52.628;10.098;2023-09-19T14:26:03;6.63;;;2.70;;
57281;SDS011;43129;52.628;10.098;2023-09-19T14:28:31;7.30;;;3.00;;
57281;SDS011;43129;52.628;10.098;2023-09-19T14:31:09;13.20;;;3.25;;
57281;SDS011;43129;52.628;10.098;2023-09-19T14:33:37;6.85;;;2.67;;
57281;SDS011;43129;52.628;10.098;2023-09-19T14:36:11;9.25;;;3.25;;
57281;SDS011;43129;52.628;10.098;2023-09-19T14:38:38;7.50;;;2.75;;
57281;SDS011;43129;52.628;10.098;2023-09-19T14:41:06;7.72;;;2.70;;
57281;SDS011;43129;52.628;10.098;2023-09-19T14:43:32;10.50;;;3.22;;
57281;SDS011;43129;52.628;10.098;2023-09-19T14:46:07;7.13;;;2.60;;
57281;SDS011;43129;52.628;10.098;2023-09-19T14:48:34;8.45;;;2.83;;
57281;SDS011;43129;52.628;10.098;2023-09-19T14:51:05;10.40;;;2.85;;
57281;SDS011;43129;52.628;10.098;2023-09-19T14:53:34;7.82;;;2.78;;
57281;SDS011;43129;52.628;10.098;2023-09-19T14:56:04;5.13;;;2.78;;
57281;SDS011;43129;52.628;10.098;2023-09-19T14:58:31;8.25;;;3.45;;
57281;SDS011;43129;52.628;10.098;2023-09-19T15:01:06;8.45;;;3.08;;
57281;SDS011;43129;52.628;10.098;2023-09-19T15:03:40;13.13;;;3.25;;
57281;SDS011;43129;52.628;10.098;2023-09-19T15:06:10;7.40;;;2.90;;
57281;SDS011;43129;52.628;10.098;2023-09-19T15:08:39;10.43;;;3.00;;
57281;SDS011;43129;52.628;10.098;2023-09-19T15:11:15;9.07;;;2.75;;
57281;SDS011;43129;52.628;10.098;2023-09-19T15:13:42;10.27;;;2.90;;
57281;SDS011;43129;52.628;10.098;2023-09-19T15:16:09;8.80;;;2.63;;
57281;SDS011;43129;52.628;10.098;2023-09-19T15:18:42;4.93;;;2.78;;
57281;SDS011;43129;52.628;10.098;2023-09-19T15:21:10;6.03;;;2.60;;
57281;SDS011;43129;52.628;10.098;2023-09-19T15:23:40;8.73;;;2.92;;
57281;SDS011;43129;52.628;10.098;2023-09-19T15:26:08;7.43;;;2.67;;
57281;SDS011;43129;52.628;10.098;2023-09-19T15:28:36;8.05;;;2.75;;
57281;SDS011;43129;52.628;10.098;2023-09-19T15:31:06;10.52;;;2.67;;
57281;SDS011;43129;52.628;10.098;2023-09-19T15:33:33;7.90;;;2.58;;
57281;SDS011;43129;52.628;10.098;2023-09-19T15:36:12;7.47;;;2.70;;
57281;SDS011;43129;52.628;10.098;2023-09-19T15:41:41;7.05;;;2.88;;
57281;SDS011;43129;52.628;10.098;2023-09-19T15:44:18;10.05;;;2.78;;
57281;SDS011;43129;52.628;10.098;2023-09-19T15:46:44;8.82;;;3.10;;
57281;SDS011;43129;52.628;10.098;2023-09-19T15:49:13;8.80;;;2.90;;
57281;SDS011;43129;52.628;10.098;2023-09-19T15:51:39;9.65;;;2.30;;
57281;SDS011;43129;52.628;10.098;2023-09-19T15:54:09;6.13;;;2.70;;
57281;SDS011;43129;52.628;10.098;2023-09-19T15:56:38;7.65;;;2.78;;
57281;SDS011;43129;52.628;10.098;2023-09-19T15:59:06;9.60;;;3.25;;
57281;SDS011;43129;52.628;10.098;2023-09-19T16:01:32;7.47;;;2.83;;
57281;SDS011;43129;52.628;10.098;2023-09-19T16:04:00;7.65;;;2.95;;
57281;SDS011;43129;52.628;10.098;2023-09-19T16:06:27;7.88;;;2.75;;